ANZ324 NZCH-NZHN
Flight info
| Callsign | ANZ324 |
|---|---|
| Flight time | 1h 0m |
| Altitude | 35000 |
| Route | GLENN Y175 OPABI Q126 HN |
| Aircraft | A320/M-SDE3FGHIRWY/LB1 |
Departure
| Time | 2026-05-07 20:34 |
|---|---|
| Airport | Christchurch International Airport (NZCH) |
Arrival
| Time | 2026-05-07 21:34 |
|---|---|
| Airport | Hamilton International Airport (NZHN) |
| Time | Latitude | Longitude | Altitude | Speed | Heading |
|---|---|---|---|---|---|
| 2026-05-07 19:56 | -43.48924 | 172.53722 | 109 ft | 0 kts | 130° |
| 2026-05-07 20:25 | -43.48911 | 172.53701 | 108 ft | 3 kts | 130° |
| 2026-05-07 20:26 | -43.48897 | 172.53678 | 108 ft | 3 kts | 130° |
| 2026-05-07 20:26 | -43.48882 | 172.53654 | 107 ft | 3 kts | 130° |
| 2026-05-07 20:26 | -43.48870 | 172.53634 | 107 ft | 3 kts | 135° |
| 2026-05-07 20:26 | -43.48853 | 172.53617 | 108 ft | 3 kts | 167° |
| 2026-05-07 20:27 | -43.48834 | 172.53617 | 109 ft | 3 kts | 211° |
| 2026-05-07 20:27 | -43.48827 | 172.53623 | 109 ft | 0 kts | 220° |
| 2026-05-07 20:29 | -43.48850 | 172.53596 | 109 ft | 7 kts | 220° |
| 2026-05-07 20:29 | -43.48900 | 172.53545 | 108 ft | 11 kts | 213° |
| 2026-05-07 20:29 | -43.48965 | 172.53476 | 113 ft | 12 kts | 221° |
| 2026-05-07 20:30 | -43.49040 | 172.53390 | 110 ft | 16 kts | 219° |
| 2026-05-07 20:30 | -43.49128 | 172.53291 | 112 ft | 16 kts | 220° |
| 2026-05-07 20:30 | -43.49213 | 172.53192 | 113 ft | 16 kts | 220° |
| 2026-05-07 20:30 | -43.49300 | 172.53091 | 117 ft | 16 kts | 220° |
| 2026-05-07 20:31 | -43.49378 | 172.53000 | 120 ft | 14 kts | 220° |
| 2026-05-07 20:31 | -43.49456 | 172.52910 | 126 ft | 15 kts | 219° |
| 2026-05-07 20:31 | -43.49534 | 172.52821 | 127 ft | 14 kts | 220° |
| 2026-05-07 20:31 | -43.49615 | 172.52726 | 124 ft | 17 kts | 220° |
| 2026-05-07 20:32 | -43.49710 | 172.52616 | 125 ft | 19 kts | 220° |
| 2026-05-07 20:32 | -43.49794 | 172.52477 | 126 ft | 20 kts | 257° |
| 2026-05-07 20:32 | -43.49782 | 172.52299 | 125 ft | 12 kts | 292° |
| 2026-05-07 20:32 | -43.49692 | 172.52292 | 124 ft | 16 kts | 36° |
| 2026-05-07 20:33 | -43.49590 | 172.52411 | 124 ft | 35 kts | 40° |
| 2026-05-07 20:33 | -43.49232 | 172.52826 | 120 ft | 99 kts | 40° |
| 2026-05-07 20:33 | -43.48571 | 172.53590 | 111 ft | 147 kts | 40° |
| 2026-05-07 20:33 | -43.47747 | 172.54547 | 486 ft | 155 kts | 39° |
| 2026-05-07 20:34 | -43.46885 | 172.55438 | 1056 ft | 155 kts | 28° |
| 2026-05-07 20:34 | -43.45915 | 172.56079 | 1695 ft | 154 kts | 24° |
| 2026-05-07 20:34 | -43.44897 | 172.56702 | 2095 ft | 169 kts | 23° |
| 2026-05-07 20:34 | -43.43748 | 172.57404 | 2329 ft | 194 kts | 23° |
| 2026-05-07 20:35 | -43.42440 | 172.58211 | 2656 ft | 218 kts | 23° |
| 2026-05-07 20:35 | -43.40980 | 172.59121 | 3055 ft | 241 kts | 23° |
| 2026-05-07 20:35 | -43.39422 | 172.60101 | 3771 ft | 250 kts | 22° |
| 2026-05-07 20:35 | -43.37825 | 172.61115 | 4648 ft | 254 kts | 22° |
| 2026-05-07 20:36 | -43.36212 | 172.62145 | 5529 ft | 257 kts | 20° |
| 2026-05-07 20:36 | -43.34582 | 172.63190 | 6368 ft | 260 kts | 20° |
| 2026-05-07 20:36 | -43.32915 | 172.64179 | 7194 ft | 262 kts | 15° |
| 2026-05-07 20:36 | -43.31192 | 172.65014 | 8015 ft | 263 kts | 13° |
| 2026-05-07 20:37 | -43.29466 | 172.65771 | 8847 ft | 265 kts | 11° |
| 2026-05-07 20:37 | -43.27700 | 172.66524 | 9662 ft | 267 kts | 11° |
| 2026-05-07 20:37 | -43.25910 | 172.67286 | 10337 ft | 273 kts | 11° |
| 2026-05-07 20:37 | -43.24017 | 172.68087 | 10551 ft | 296 kts | 11° |
| 2026-05-07 20:38 | -43.21969 | 172.68966 | 10699 ft | 319 kts | 12° |
| 2026-05-07 20:38 | -43.19794 | 172.69915 | 11013 ft | 334 kts | 12° |
| 2026-05-07 20:38 | -43.17562 | 172.70906 | 11640 ft | 339 kts | 12° |
| 2026-05-07 20:38 | -43.15308 | 172.71918 | 12305 ft | 342 kts | 12° |
| 2026-05-07 20:39 | -43.13037 | 172.72937 | 12954 ft | 345 kts | 12° |
| 2026-05-07 20:39 | -43.10740 | 172.73964 | 13613 ft | 349 kts | 12° |
| 2026-05-07 20:39 | -43.08419 | 172.74998 | 14189 ft | 352 kts | 12° |
| 2026-05-07 20:39 | -43.06111 | 172.76025 | 14749 ft | 355 kts | 12° |
| 2026-05-07 20:40 | -43.03756 | 172.77070 | 15314 ft | 357 kts | 12° |
| 2026-05-07 20:40 | -43.01384 | 172.78117 | 15883 ft | 360 kts | 12° |
| 2026-05-07 20:40 | -42.98991 | 172.79174 | 16459 ft | 363 kts | 12° |
| 2026-05-07 20:40 | -42.96585 | 172.80234 | 17053 ft | 365 kts | 12° |
| 2026-05-07 20:41 | -42.94158 | 172.81307 | 17657 ft | 368 kts | 12° |
| 2026-05-07 20:41 | -42.91712 | 172.82384 | 18235 ft | 371 kts | 12° |
| 2026-05-07 20:41 | -42.89248 | 172.83466 | 18777 ft | 374 kts | 12° |
| 2026-05-07 20:41 | -42.86765 | 172.84582 | 19323 ft | 378 kts | 13° |
| 2026-05-07 20:42 | -42.84284 | 172.85807 | 19865 ft | 382 kts | 15° |
| 2026-05-07 20:42 | -42.81793 | 172.87113 | 20385 ft | 385 kts | 16° |
| 2026-05-07 20:42 | -42.79293 | 172.88454 | 20872 ft | 388 kts | 16° |
| 2026-05-07 20:42 | -42.76778 | 172.89801 | 21355 ft | 390 kts | 16° |
| 2026-05-07 20:43 | -42.74239 | 172.91145 | 21813 ft | 392 kts | 16° |
| 2026-05-07 20:43 | -42.71721 | 172.92464 | 22249 ft | 395 kts | 16° |
| 2026-05-07 20:43 | -42.69145 | 172.93802 | 22674 ft | 397 kts | 16° |
| 2026-05-07 20:43 | -42.66549 | 172.95140 | 23087 ft | 400 kts | 16° |
| 2026-05-07 20:44 | -42.63937 | 172.96477 | 23487 ft | 403 kts | 16° |
| 2026-05-07 20:44 | -42.61307 | 172.97821 | 23831 ft | 405 kts | 16° |
| 2026-05-07 20:44 | -42.58664 | 172.99172 | 24178 ft | 407 kts | 16° |
| 2026-05-07 20:44 | -42.56006 | 173.00532 | 24535 ft | 409 kts | 16° |
| 2026-05-07 20:45 | -42.53339 | 173.01897 | 24854 ft | 411 kts | 16° |
| 2026-05-07 20:45 | -42.50657 | 173.03272 | 25190 ft | 414 kts | 16° |
| 2026-05-07 20:45 | -42.47961 | 173.04659 | 25553 ft | 415 kts | 16° |
| 2026-05-07 20:45 | -42.45253 | 173.06055 | 25882 ft | 418 kts | 16° |
| 2026-05-07 20:46 | -42.42527 | 173.07449 | 26240 ft | 420 kts | 16° |
| 2026-05-07 20:46 | -42.39788 | 173.08845 | 26597 ft | 421 kts | 16° |
| 2026-05-07 20:46 | -42.37075 | 173.10225 | 26925 ft | 423 kts | 16° |
| 2026-05-07 20:46 | -42.34310 | 173.11629 | 27207 ft | 426 kts | 16° |
| 2026-05-07 20:47 | -42.31535 | 173.13040 | 27542 ft | 428 kts | 16° |
| 2026-05-07 20:47 | -42.28745 | 173.14460 | 27927 ft | 428 kts | 16° |
| 2026-05-07 20:47 | -42.25962 | 173.15883 | 28367 ft | 427 kts | 16° |
| 2026-05-07 20:47 | -42.23186 | 173.17302 | 28809 ft | 426 kts | 16° |
| 2026-05-07 20:48 | -42.20412 | 173.18714 | 29223 ft | 426 kts | 16° |
| 2026-05-07 20:48 | -42.17637 | 173.20116 | 29635 ft | 426 kts | 16° |
| 2026-05-07 20:48 | -42.14856 | 173.21517 | 30043 ft | 426 kts | 16° |
| 2026-05-07 20:48 | -42.12078 | 173.22916 | 30436 ft | 425 kts | 16° |
| 2026-05-07 20:49 | -42.09311 | 173.24312 | 30841 ft | 424 kts | 16° |
| 2026-05-07 20:49 | -42.06553 | 173.25707 | 31264 ft | 423 kts | 16° |
| 2026-05-07 20:49 | -42.03845 | 173.27076 | 31673 ft | 421 kts | 16° |
| 2026-05-07 20:49 | -42.01105 | 173.28459 | 32094 ft | 420 kts | 16° |
| 2026-05-07 20:50 | -41.98373 | 173.29835 | 32518 ft | 418 kts | 16° |
| 2026-05-07 20:50 | -41.95653 | 173.31202 | 32961 ft | 417 kts | 15° |
| 2026-05-07 20:50 | -41.92944 | 173.32564 | 33375 ft | 415 kts | 15° |
| 2026-05-07 20:50 | -41.90242 | 173.33920 | 33799 ft | 413 kts | 15° |
| 2026-05-07 20:51 | -41.87558 | 173.35266 | 34157 ft | 412 kts | 15° |
| 2026-05-07 20:51 | -41.84871 | 173.36612 | 34558 ft | 412 kts | 15° |
| 2026-05-07 20:51 | -41.82185 | 173.37957 | 34816 ft | 413 kts | 15° |
| 2026-05-07 20:52 | -41.76744 | 173.40667 | 34877 ft | 421 kts | 15° |
| 2026-05-07 20:52 | -41.71266 | 173.43397 | 34884 ft | 423 kts | 15° |
| 2026-05-07 20:53 | -41.65743 | 173.46151 | 34889 ft | 424 kts | 15° |
| 2026-05-07 20:53 | -41.60219 | 173.48892 | 34888 ft | 424 kts | 15° |
| 2026-05-07 20:54 | -41.54693 | 173.51638 | 34894 ft | 423 kts | 15° |
| 2026-05-07 20:54 | -41.49176 | 173.54373 | 34878 ft | 423 kts | 15° |
| 2026-05-07 20:55 | -41.43655 | 173.57097 | 34898 ft | 423 kts | 15° |
| 2026-05-07 20:55 | -41.38166 | 173.59804 | 34898 ft | 423 kts | 15° |
| 2026-05-07 20:56 | -41.32644 | 173.62524 | 34910 ft | 423 kts | 15° |
| 2026-05-07 20:56 | -41.27112 | 173.65237 | 34913 ft | 424 kts | 15° |
| 2026-05-07 20:57 | -41.21563 | 173.67947 | 34931 ft | 425 kts | 15° |
| 2026-05-07 20:57 | -41.16020 | 173.70664 | 34933 ft | 425 kts | 15° |
| 2026-05-07 20:58 | -41.10474 | 173.73380 | 34932 ft | 425 kts | 15° |
| 2026-05-07 20:58 | -41.04948 | 173.76076 | 34945 ft | 426 kts | 15° |
| 2026-05-07 20:59 | -40.99376 | 173.78784 | 34966 ft | 426 kts | 15° |
| 2026-05-07 20:59 | -40.93803 | 173.81492 | 34942 ft | 427 kts | 15° |
| 2026-05-07 21:00 | -40.88219 | 173.84197 | 34955 ft | 427 kts | 15° |
| 2026-05-07 21:00 | -40.82631 | 173.86900 | 34959 ft | 428 kts | 15° |
| 2026-05-07 21:01 | -40.77030 | 173.89609 | 34959 ft | 429 kts | 15° |
| 2026-05-07 21:01 | -40.71471 | 173.92293 | 34935 ft | 429 kts | 14° |
| 2026-05-07 21:02 | -40.65869 | 173.94994 | 34952 ft | 429 kts | 14° |
| 2026-05-07 21:02 | -40.60266 | 173.97686 | 34961 ft | 429 kts | 14° |
| 2026-05-07 21:03 | -40.54652 | 174.00373 | 34967 ft | 429 kts | 14° |
| 2026-05-07 21:03 | -40.49046 | 174.03053 | 34976 ft | 429 kts | 14° |
| 2026-05-07 21:04 | -40.43442 | 174.05742 | 34982 ft | 429 kts | 14° |
| 2026-05-07 21:04 | -40.37865 | 174.08407 | 34989 ft | 429 kts | 14° |
| 2026-05-07 21:05 | -40.32257 | 174.11077 | 34982 ft | 429 kts | 14° |
| 2026-05-07 21:05 | -40.26643 | 174.13751 | 34983 ft | 430 kts | 14° |
| 2026-05-07 21:06 | -40.21020 | 174.16421 | 34984 ft | 430 kts | 14° |
| 2026-05-07 21:06 | -40.15394 | 174.19092 | 34984 ft | 430 kts | 14° |
| 2026-05-07 21:07 | -40.09760 | 174.21752 | 34975 ft | 431 kts | 14° |
| 2026-05-07 21:07 | -40.04155 | 174.24389 | 34980 ft | 432 kts | 14° |
| 2026-05-07 21:08 | -39.98502 | 174.27053 | 34984 ft | 432 kts | 14° |
| 2026-05-07 21:08 | -39.92841 | 174.29726 | 34972 ft | 432 kts | 14° |
| 2026-05-07 21:09 | -39.87194 | 174.32400 | 34971 ft | 432 kts | 14° |
| 2026-05-07 21:09 | -39.81530 | 174.35062 | 34986 ft | 432 kts | 14° |
| 2026-05-07 21:10 | -39.75865 | 174.37701 | 35009 ft | 433 kts | 14° |
| 2026-05-07 21:10 | -39.70195 | 174.40342 | 35017 ft | 433 kts | 14° |
| 2026-05-07 21:11 | -39.64561 | 174.42959 | 35006 ft | 433 kts | 14° |
| 2026-05-07 21:11 | -39.56038 | 174.46936 | 35014 ft | 434 kts | 14° |
| 2026-05-07 21:12 | -39.50341 | 174.49578 | 35026 ft | 435 kts | 14° |
| 2026-05-07 21:12 | -39.44648 | 174.52217 | 35023 ft | 435 kts | 13° |
| 2026-05-07 21:13 | -39.38946 | 174.54861 | 35027 ft | 436 kts | 13° |
| 2026-05-07 21:13 | -39.33271 | 174.57488 | 35037 ft | 436 kts | 13° |
| 2026-05-07 21:14 | -39.27552 | 174.60125 | 35041 ft | 437 kts | 13° |
| 2026-05-07 21:14 | -39.21830 | 174.62758 | 35022 ft | 437 kts | 13° |
| 2026-05-07 21:15 | -39.16088 | 174.65389 | 35037 ft | 438 kts | 13° |
| 2026-05-07 21:15 | -39.10337 | 174.68017 | 35045 ft | 439 kts | 13° |
| 2026-05-07 21:16 | -39.04616 | 174.70651 | 34967 ft | 441 kts | 13° |
| 2026-05-07 21:16 | -39.01731 | 174.71975 | 34729 ft | 440 kts | 14° |
| 2026-05-07 21:16 | -38.98849 | 174.73294 | 34489 ft | 440 kts | 13° |
| 2026-05-07 21:17 | -38.95960 | 174.74611 | 34249 ft | 440 kts | 13° |
| 2026-05-07 21:17 | -38.93070 | 174.75926 | 34005 ft | 440 kts | 13° |
| 2026-05-07 21:17 | -38.90181 | 174.77241 | 33202 ft | 443 kts | 13° |
| 2026-05-07 21:17 | -38.87265 | 174.78566 | 32351 ft | 445 kts | 13° |
| 2026-05-07 21:18 | -38.84341 | 174.79897 | 31460 ft | 448 kts | 13° |
| 2026-05-07 21:18 | -38.81402 | 174.81261 | 30530 ft | 452 kts | 14° |
| 2026-05-07 21:18 | -38.78457 | 174.82762 | 29435 ft | 459 kts | 16° |
| 2026-05-07 21:18 | -38.75553 | 174.84352 | 28380 ft | 461 kts | 17° |
| 2026-05-07 21:19 | -38.72612 | 174.86026 | 27269 ft | 464 kts | 18° |
| 2026-05-07 21:19 | -38.69667 | 174.87720 | 26435 ft | 462 kts | 18° |
| 2026-05-07 21:19 | -38.66759 | 174.89385 | 25729 ft | 456 kts | 18° |
| 2026-05-07 21:19 | -38.63866 | 174.91013 | 24977 ft | 452 kts | 18° |
| 2026-05-07 21:20 | -38.60988 | 174.92599 | 24214 ft | 448 kts | 18° |
| 2026-05-07 21:20 | -38.58125 | 174.94154 | 23428 ft | 446 kts | 18° |
| 2026-05-07 21:20 | -38.55282 | 174.95687 | 22649 ft | 441 kts | 18° |
| 2026-05-07 21:20 | -38.52477 | 174.97203 | 21923 ft | 435 kts | 19° |
| 2026-05-07 21:21 | -38.50637 | 174.98200 | 21447 ft | 432 kts | 19° |
| 2026-05-07 21:21 | -38.47889 | 174.99688 | 20731 ft | 427 kts | 19° |
| 2026-05-07 21:21 | -38.44297 | 175.01635 | 19804 ft | 420 kts | 19° |
| 2026-05-07 21:21 | -38.41631 | 175.03083 | 19140 ft | 414 kts | 19° |
| 2026-05-07 21:22 | -38.38993 | 175.04513 | 18505 ft | 409 kts | 19° |
| 2026-05-07 21:22 | -38.36386 | 175.05924 | 17820 ft | 405 kts | 19° |
| 2026-05-07 21:22 | -38.34678 | 175.06850 | 17427 ft | 401 kts | 19° |
| 2026-05-07 21:22 | -38.32128 | 175.08236 | 16825 ft | 397 kts | 19° |
| 2026-05-07 21:23 | -38.29601 | 175.09613 | 16237 ft | 393 kts | 19° |
| 2026-05-07 21:23 | -38.27100 | 175.10971 | 15630 ft | 390 kts | 19° |
| 2026-05-07 21:23 | -38.24608 | 175.12319 | 15024 ft | 388 kts | 19° |
| 2026-05-07 21:23 | -38.22133 | 175.13656 | 14387 ft | 386 kts | 19° |
| 2026-05-07 21:24 | -38.19664 | 175.14995 | 13673 ft | 385 kts | 20° |
| 2026-05-07 21:24 | -38.17205 | 175.16332 | 12962 ft | 383 kts | 20° |
| 2026-05-07 21:24 | -38.14768 | 175.17659 | 12166 ft | 382 kts | 20° |
| 2026-05-07 21:24 | -38.12335 | 175.18986 | 11539 ft | 377 kts | 20° |
| 2026-05-07 21:25 | -38.09932 | 175.20297 | 10906 ft | 366 kts | 20° |
| 2026-05-07 21:25 | -38.07696 | 175.21521 | 10648 ft | 335 kts | 20° |
| 2026-05-07 21:25 | -38.05678 | 175.22628 | 10519 ft | 307 kts | 20° |
| 2026-05-07 21:25 | -38.03789 | 175.23662 | 10341 ft | 287 kts | 20° |
| 2026-05-07 21:26 | -38.01999 | 175.24634 | 10112 ft | 275 kts | 19° |
| 2026-05-07 21:26 | -38.00243 | 175.25578 | 9905 ft | 271 kts | 19° |
| 2026-05-07 21:26 | -37.98510 | 175.26510 | 9783 ft | 271 kts | 19° |
| 2026-05-07 21:26 | -37.96775 | 175.27445 | 9642 ft | 270 kts | 20° |
| 2026-05-07 21:27 | -37.95047 | 175.28375 | 9460 ft | 271 kts | 20° |
| 2026-05-07 21:27 | -37.93279 | 175.29324 | 8774 ft | 281 kts | 20° |
| 2026-05-07 21:27 | -37.91477 | 175.30297 | 8409 ft | 279 kts | 20° |
| 2026-05-07 21:27 | -37.89853 | 175.31560 | 8238 ft | 275 kts | 44° |
| 2026-05-07 21:28 | -37.88998 | 175.33663 | 8114 ft | 277 kts | 76° |
| 2026-05-07 21:28 | -37.89168 | 175.36101 | 7722 ft | 290 kts | 105° |
| 2026-05-07 21:28 | -37.90351 | 175.38273 | 6944 ft | 315 kts | 138° |
| 2026-05-07 21:28 | -37.92368 | 175.39468 | 6251 ft | 327 kts | 170° |
| 2026-05-07 21:29 | -37.94578 | 175.39262 | 5737 ft | 315 kts | 199° |
| 2026-05-07 21:29 | -37.96615 | 175.38376 | 5245 ft | 305 kts | 200° |
| 2026-05-07 21:29 | -37.98619 | 175.37585 | 4746 ft | 298 kts | 199° |
| 2026-05-07 21:29 | -38.00391 | 175.36455 | 4253 ft | 272 kts | 229° |
| 2026-05-07 21:30 | -38.01270 | 175.34551 | 3849 ft | 238 kts | 266° |
| 2026-05-07 21:30 | -38.01187 | 175.32617 | 3496 ft | 214 kts | 293° |
| 2026-05-07 21:30 | -38.00788 | 175.30879 | 3186 ft | 196 kts | 294° |
| 2026-05-07 21:30 | -38.00183 | 175.29484 | 2883 ft | 170 kts | 324° |
| 2026-05-07 21:31 | -37.99203 | 175.28897 | 2664 ft | 145 kts | 354° |
| 2026-05-07 21:31 | -37.98241 | 175.29025 | 2457 ft | 138 kts | 15° |
| 2026-05-07 21:31 | -37.97323 | 175.29363 | 2260 ft | 137 kts | 15° |
| 2026-05-07 21:31 | -37.96415 | 175.29691 | 2071 ft | 136 kts | 15° |
| 2026-05-07 21:32 | -37.95510 | 175.30020 | 1876 ft | 135 kts | 16° |
| 2026-05-07 21:32 | -37.94611 | 175.30346 | 1691 ft | 134 kts | 16° |
| 2026-05-07 21:32 | -37.93728 | 175.30666 | 1495 ft | 134 kts | 15° |
| 2026-05-07 21:32 | -37.92831 | 175.30990 | 1311 ft | 133 kts | 17° |
| 2026-05-07 21:33 | -37.91940 | 175.31312 | 1131 ft | 133 kts | 17° |
| 2026-05-07 21:33 | -37.91048 | 175.31633 | 955 ft | 134 kts | 16° |
| 2026-05-07 21:33 | -37.90148 | 175.31941 | 789 ft | 133 kts | 18° |
| 2026-05-07 21:33 | -37.89256 | 175.32256 | 640 ft | 134 kts | 21° |
| 2026-05-07 21:34 | -37.88376 | 175.32598 | 451 ft | 131 kts | 19° |
| 2026-05-07 21:34 | -37.87489 | 175.32920 | 242 ft | 132 kts | 19° |
| 2026-05-07 21:34 | -37.86676 | 175.33220 | 165 ft | 96 kts | 15° |
| 2026-05-07 21:34 | -37.86290 | 175.33362 | 167 ft | 39 kts | 17° |
| 2026-05-07 21:35 | -37.86155 | 175.33428 | 167 ft | 15 kts | 25° |
| 2026-05-07 21:35 | -37.86124 | 175.33431 | 166 ft | 1 kts | 266° |
| 2026-05-07 21:35 | -37.86163 | 175.33404 | 167 ft | 14 kts | 198° |
| 2026-05-07 21:35 | -37.86278 | 175.33363 | 167 ft | 19 kts | 195° |
| 2026-05-07 21:36 | -37.86412 | 175.33316 | 167 ft | 21 kts | 195° |
| 2026-05-07 21:36 | -37.86517 | 175.33286 | 166 ft | 9 kts | 159° |
| 2026-05-07 21:36 | -37.86546 | 175.33371 | 162 ft | 15 kts | 109° |
| 2026-05-07 21:36 | -37.86562 | 175.33461 | 160 ft | 6 kts | 78° |
| 2026-05-07 21:37 | -37.86537 | 175.33514 | 160 ft | 6 kts | 67° |
| 2026-05-07 21:37 | -37.86544 | 175.33563 | 159 ft | 4 kts | 120° |
| 2026-05-07 21:37 | -37.86554 | 175.33566 | 159 ft | 2 kts | 160° |
| 2026-05-07 21:37 | -37.86564 | 175.33569 | 159 ft | 0 kts | 177° |